M I D A S
Marine Information and Data Acquisition System
Tripno 1993 of the Zeeleeuw from 2010-07-06 06:52:40 to 2010-07-06 13:51:27
Back to CruiseResearch ActivitiesStationsMapUnderway DataData graphs

EquipmentUnitsComment
TimeDGPSUTC
LatitudeDGPSDM.mWGS84
LongitudeDGPSDM.mWGS84
HeadingGyrodeg 
SOGDGPSknotsSpeed over ground
COGDGPSdegCourse over ground
DepthEcho soundermeters200 kHz
Missing or incorrect values are displayed as -999
Navigation data collected by the RV Zeeleeuw from 2010-07-06 06:44:44 to 2010-07-06 13:54:39
Time Latitude Longitude Heading SOG COG Depth
2010-07-06 06:45:52 51°13.675 2°55.91 118.4 3.1 295 -999
2010-07-06 06:46:53 51°13.708 2°55.816 129 4.4 307 -999
2010-07-06 06:47:53 51°13.749 2°55.748 136.7 2.5 313 12.5
2010-07-06 06:48:53 51°13.797 2°55.677 143.6 4.6 322 -999
2010-07-06 06:49:53 51°13.869 2°55.64 178.6 4.7 358 -999
2010-07-06 06:50:53 51°13.937 2°55.667 208.7 2.8 30 13.4
2010-07-06 06:51:52 51°13.94 2°55.643 260.8 3.1 271 13.7
2010-07-06 06:52:50 51°13.989 2°55.549 323.3 6.8 323 13.2
2010-07-06 06:53:49 51°14.105 2°55.439 333 9.3 331 13.1
2010-07-06 06:54:49 51°14.25 2°55.317 333.2 10.1 331 12.5
2010-07-06 06:55:49 51°14.399 2°55.177 331.2 10.5 329 12.9
2010-07-06 06:56:49 51°14.556 2°55.037 331.3 11.2 334 14
2010-07-06 06:57:49 51°14.723 2°54.864 320.3 12.4 325 13.6
2010-07-06 06:58:49 51°14.896 2°54.654 320 13.3 322 13
2010-07-06 06:59:49 51°15.072 2°54.441 319.2 13.3 321 11.7
2010-07-06 07:00:49 51°15.254 2°54.238 325.7 13.4 328 11.9
2010-07-06 07:01:49 51°15.437 2°54.039 322 13.3 324 12.3
2010-07-06 07:02:49 51°15.609 2°53.819 318 13.2 320 12.9
2010-07-06 07:03:49 51°15.779 2°53.597 317.9 13.2 320 13.4
2010-07-06 07:04:49 51°15.966 2°53.411 333 13.4 336 13.5
2010-07-06 07:05:49 51°16.178 2°53.288 336.9 13.6 340 13.8
2010-07-06 07:06:49 51°16.389 2°53.163 336.4 13.5 339 14
2010-07-06 07:07:49 51°16.598 2°53.034 335.6 13.4 339 13.4
2010-07-06 07:08:49 51°16.805 2°52.903 335.3 13.4 338 11.7
2010-07-06 07:09:49 51°17.013 2°52.768 335.6 13.6 338 11.7
2010-07-06 07:10:49 51°17.229 2°52.659 347.5 13.8 351 11.9
2010-07-06 07:11:49 51°17.458 2°52.616 352 13.9 353 12.3
2010-07-06 07:12:49 51°17.687 2°52.571 351.6 13.8 353 12.3
2010-07-06 07:13:49 51°17.917 2°52.537 357.8 13.9 1 12.5
2010-07-06 07:14:48 51°18.145 2°52.548 1.5 14 2 12.9
2010-07-06 07:15:49 51°18.38 2°52.562 1.4 13.9 2 13
2010-07-06 07:16:49 51°18.612 2°52.574 0.3 14 1 13.5
2010-07-06 07:17:49 51°18.843 2°52.584 0.4 14 2 14.2
2010-07-06 07:18:49 51°19.076 2°52.592 0.8 14 2 15.1
2010-07-06 07:19:49 51°19.31 2°52.614 5.2 14.2 6 16.1
2010-07-06 07:20:49 51°19.546 2°52.662 5.8 14.3 7 17
2010-07-06 07:21:49 51°19.782 2°52.71 6 14.4 7 17.7
2010-07-06 07:22:49 51°20.02 2°52.755 5.7 14.3 7 18.3
2010-07-06 07:23:49 51°20.254 2°52.804 8.1 14.2 10 18.3
2010-07-06 07:24:49 51°20.485 2°52.88 10.7 14.2 11 18.1
2010-07-06 07:25:49 51°20.716 2°52.953 10.3 14.1 11 18
2010-07-06 07:26:49 51°20.946 2°53.025 10.6 14 11 17.9
2010-07-06 07:27:49 51°21.177 2°53.094 10.7 14.1 10 16.8
2010-07-06 07:28:48 51°21.403 2°53.161 10.5 14.1 11 17.6
2010-07-06 07:29:49 51°21.638 2°53.231 10.2 14.1 11 19.2
2010-07-06 07:30:49 51°21.865 2°53.328 15.8 14.2 15 20.9
2010-07-06 07:31:49 51°22.091 2°53.432 16 14.1 16 22.4
2010-07-06 07:32:49 51°22.318 2°53.528 11.5 14 12 23.9
2010-07-06 07:33:49 51°22.55 2°53.568 4.4 14.1 5 24.4
2010-07-06 07:34:49 51°22.783 2°53.586 356.3 13.9 358 24.7
2010-07-06 07:35:48 51°23.01 2°53.559 354 14 356 21
2010-07-06 07:36:49 51°23.247 2°53.536 354.3 14.1 356 21.6
2010-07-06 07:37:49 51°23.482 2°53.514 354.8 14.2 357 20.3
2010-07-06 07:38:48 51°23.715 2°53.495 354.8 14.3 357 22.9
2010-07-06 07:39:49 51°23.956 2°53.476 354.8 14.3 357 21.4
2010-07-06 07:40:49 51°24.194 2°53.453 355 14.4 357 19.8
2010-07-06 07:41:49 51°24.431 2°53.43 355.1 14.2 356 19.9
2010-07-06 07:42:48 51°24.664 2°53.408 355 14.2 356 20.1
2010-07-06 07:43:49 51°24.906 2°53.382 355 14.4 356 20.3
2010-07-06 07:44:49 51°25.147 2°53.355 354.8 14.4 355 23.7
2010-07-06 07:45:48 51°25.381 2°53.325 355.2 14.2 355 24.4
2010-07-06 07:46:48 51°25.616 2°53.296 355.6 14.1 356 26.2
2010-07-06 07:47:48 51°25.849 2°53.266 355.1 14.2 356 28.8
2010-07-06 07:48:48 51°26.084 2°53.236 355.5 14.2 356 31.8
2010-07-06 07:49:48 51°26.319 2°53.204 354.8 14.1 354 32.3
2010-07-06 07:50:48 51°26.552 2°53.171 355.6 14.2 355 31.9
2010-07-06 07:51:49 51°26.789 2°53.132 355 14.1 354 30.5
2010-07-06 07:52:48 51°27.019 2°53.094 355 14.2 355 29.1
2010-07-06 07:53:48 51°27.254 2°53.055 355.1 14.2 355 26.7
2010-07-06 07:54:48 51°27.49 2°53.023 355.7 14.2 356 23
2010-07-06 07:55:48 51°27.727 2°52.988 355.3 14.3 354 20.8
2010-07-06 07:56:48 51°27.963 2°52.958 355.5 14.2 356 24.1
2010-07-06 07:57:48 51°28.202 2°52.928 354.9 14.4 355 23.3
2010-07-06 07:58:48 51°28.442 2°52.897 355 14.4 356 25.4
2010-07-06 07:59:48 51°28.68 2°52.868 354.8 14.2 356 26.8
2010-07-06 08:00:48 51°28.917 2°52.836 355.2 14.4 355 27.8
2010-07-06 08:01:48 51°29.155 2°52.808 355.2 14 357 28.7
2010-07-06 08:02:48 51°29.393 2°52.794 2.2 14.2 3 30.3
2010-07-06 08:03:48 51°29.629 2°52.826 3.3 14.2 4 32.6
2010-07-06 08:04:48 51°29.862 2°52.836 0.2 14.2 -999 31.6
2010-07-06 08:05:48 51°30.102 2°52.844 0.7 14.3 1 30.9
2010-07-06 08:06:48 51°30.335 2°52.857 0.4 14.2 2 30.4
2010-07-06 08:07:48 51°30.581 2°52.863 0.7 14.5 1 26.1
2010-07-06 08:08:49 51°30.825 2°52.874 0.5 14.4 -999 21.5
2010-07-06 08:09:48 51°31.056 2°52.83 345.5 14 345 21.3
2010-07-06 08:10:49 51°31.224 2°52.742 324.4 6.5 334 23.1
2010-07-06 08:11:49 51°31.282 2°52.67 294.3 3.5 309 23.6
2010-07-06 08:12:49 51°31.306 2°52.621 281.6 1.2 330 22.8
2010-07-06 08:13:51 51°31.317 2°52.653 262.9 1.9 70 -999
2010-07-06 08:14:52 51°31.332 2°52.698 245.9 1.2 58 22.6
2010-07-06 08:15:52 51°31.336 2°52.702 247.3 0.3 271 21.8
2010-07-06 08:16:52 51°31.336 2°52.694 247.3 0.2 285 22.2
2010-07-06 08:17:52 51°31.338 2°52.694 249.1 0.1 28 22
2010-07-06 08:18:51 51°31.34 2°52.697 249.1 0.2 20 21.6
2010-07-06 08:19:52 51°31.341 2°52.694 249.2 0.2 280 21.2
2010-07-06 08:20:52 51°31.343 2°52.689 250.2 0.1 314 21.1
2010-07-06 08:21:52 51°31.345 2°52.688 250.6 0.2 334 20.7
2010-07-06 08:22:52 51°31.346 2°52.686 250 0.1 298 20.5
2010-07-06 08:23:52 51°31.346 2°52.682 248 0.1 297 20.8
2010-07-06 08:24:52 51°31.347 2°52.68 247.2 -999 179 20.8
2010-07-06 08:25:52 51°31.347 2°52.68 245.4 0.1 331 20.9
2010-07-06 08:26:52 51°31.347 2°52.68 245.1 -999 102 20.6
2010-07-06 08:27:52 51°31.347 2°52.681 245.2 0.1 114 20.5
2010-07-06 08:28:52 51°31.347 2°52.68 245.4 0.1 328 20.7
2010-07-06 08:29:52 51°31.347 2°52.68 245.9 0.1 229 20.5
2010-07-06 08:30:52 51°31.347 2°52.678 246.6 0.1 297 20.3
2010-07-06 08:31:52 51°31.347 2°52.675 246.9 0.2 313 20.2
2010-07-06 08:32:51 51°31.348 2°52.673 244 -999 235 20.3
2010-07-06 08:33:51 51°31.348 2°52.673 241.3 0.1 139 20.4
2010-07-06 08:34:51 51°31.349 2°52.675 241.8 0.1 36 20.1
2010-07-06 08:35:51 51°31.349 2°52.676 241.1 -999 21 19.9
2010-07-06 08:36:51 51°31.348 2°52.676 241.2 -999 262 20.1
2010-07-06 08:37:51 51°31.348 2°52.676 239.9 -999 185 20
2010-07-06 08:38:52 51°31.348 2°52.675 240.5 0.1 299 20
2010-07-06 08:39:52 51°31.348 2°52.676 238.8 0.1 57 19.8
2010-07-06 08:40:52 51°31.349 2°52.676 239.7 -999 23 19.6
2010-07-06 08:41:52 51°31.349 2°52.676 239.2 0.1 239 20
2010-07-06 08:42:52 51°31.349 2°52.675 241.7 -999 118 19.7
2010-07-06 08:43:52 51°31.349 2°52.674 241.8 0.1 172 19.7
2010-07-06 08:44:52 51°31.349 2°52.672 242.6 0.1 320 19.8
2010-07-06 08:45:52 51°31.349 2°52.672 241.8 -999 307 19.5
2010-07-06 08:46:52 51°31.35 2°52.67 241.3 0.1 301 19.6
2010-07-06 08:47:52 51°31.35 2°52.668 240.3 0.2 297 19.8
2010-07-06 08:48:52 51°31.35 2°52.665 239.7 0.1 254 20.1
2010-07-06 08:49:52 51°31.35 2°52.665 239.4 -999 60 20.1
2010-07-06 08:50:52 51°31.351 2°52.665 239.3 0.1 110 20.3
2010-07-06 08:51:52 51°31.351 2°52.665 239.2 0.1 261 19.8
2010-07-06 08:52:52 51°31.351 2°52.663 239 0.1 279 19.8
2010-07-06 08:53:52 51°31.351 2°52.662 236 0.1 244 20.1
2010-07-06 08:54:52 51°31.347 2°52.649 239.3 0.8 246 21.7
2010-07-06 08:55:52 51°31.337 2°52.632 229.7 1 206 23
2010-07-06 08:56:52 51°31.323 2°52.628 214.9 0.7 169 23.1
2010-07-06 08:58:26 51°31.311 2°52.609 242.2 1.2 262 22.9
2010-07-06 08:59:27 51°31.337 2°52.531 303.9 5.6 325 23.7
2010-07-06 09:00:27 51°31.442 2°52.572 37.7 9.2 43 23.1
2010-07-06 09:01:27 51°31.562 2°52.82 54.5 13.3 54 22.6
2010-07-06 09:02:27 51°31.705 2°53.12 55.4 14.7 53 23.3
2010-07-06 09:03:27 51°31.862 2°53.42 49.5 14.7 48 22.1
2010-07-06 09:04:27 51°32.025 2°53.714 50 14.8 48 21.3
2010-07-06 09:05:27 51°32.188 2°54.008 50 14.7 48 21.7
2010-07-06 09:06:27 51°32.331 2°54.318 55.2 14.6 56 24.4
2010-07-06 09:07:27 51°32.441 2°54.67 72.3 14.6 72 24.7
2010-07-06 09:08:27 51°32.509 2°55.042 74.1 14.5 71 22.6
2010-07-06 09:09:27 51°32.587 2°55.363 71.3 9.6 67 24.6
2010-07-06 09:10:27 51°32.628 2°55.513 70.9 3.2 66 24.4
2010-07-06 09:11:27 51°32.643 2°55.584 93.1 2.7 74 25.3
2010-07-06 09:12:27 51°32.651 2°55.647 94.4 2.2 79 27.7
2010-07-06 09:13:27 51°32.661 2°55.703 88.8 2.1 74 26.8
2010-07-06 09:14:27 51°32.671 2°55.752 83.5 1.9 70 25.7
2010-07-06 09:15:27 51°32.684 2°55.798 78.4 1.8 64 25.1
2010-07-06 09:16:27 51°32.696 2°55.84 74.4 1.4 60 23
2010-07-06 09:17:27 51°32.705 2°55.854 80.2 0.6 47 24.4
2010-07-06 09:18:27 51°32.712 2°55.861 92.9 0.6 18 24.7
2010-07-06 09:19:27 51°32.721 2°55.869 99 0.7 33 24.4
2010-07-06 09:20:27 51°32.741 2°55.929 56.8 3.9 50 22
2010-07-06 09:21:27 51°32.811 2°55.971 356.8 5.1 3 25.8
2010-07-06 09:22:27 51°32.883 2°55.979 353 3 11 25.2
2010-07-06 09:23:27 51°32.901 2°55.999 22.2 0.8 68 -999
2010-07-06 09:24:27 51°32.907 2°56.016 36.6 0.8 57 26.3
2010-07-06 09:25:27 51°32.914 2°56.036 45.5 0.9 62 25.8
2010-07-06 09:26:27 51°32.922 2°56.059 52.8 1 65 26.4
2010-07-06 09:27:27 51°32.93 2°56.082 60.9 1 62 26.2
2010-07-06 09:28:27 51°32.937 2°56.104 68.8 0.8 60 25.8
2010-07-06 09:29:27 51°32.942 2°56.12 80.3 0.6 52 25
2010-07-06 09:30:27 51°32.948 2°56.131 91.2 0.5 51 24.3
2010-07-06 09:31:27 51°32.954 2°56.14 101.6 0.5 36 25.6
2010-07-06 09:32:27 51°32.962 2°56.147 114.4 0.6 38 25.9
2010-07-06 09:33:27 51°32.969 2°56.16 124.9 0.7 57 26.9
2010-07-06 09:34:27 51°32.974 2°56.18 128.8 0.9 68 27
2010-07-06 09:35:27 51°32.978 2°56.201 128.9 0.9 79 26.3
2010-07-06 09:36:27 51°32.981 2°56.226 126.4 1.1 78 24.1
2010-07-06 09:37:27 51°32.984 2°56.256 119.4 1.6 94 24.7
2010-07-06 09:38:27 51°32.95 2°56.315 171.1 3.6 168 25.2
2010-07-06 09:39:27 51°32.91 2°56.279 234.8 2.1 238 26.1
2010-07-06 09:40:27 51°32.902 2°56.243 249.9 1.1 260 25.8
2010-07-06 09:41:27 51°32.903 2°56.222 256.3 0.6 294 25.2
2010-07-06 09:42:27 51°32.907 2°56.213 259.8 0.3 327 24.8
2010-07-06 09:43:27 51°32.912 2°56.213 261.4 0.4 13 25.3
2010-07-06 09:44:27 51°32.918 2°56.219 264.4 0.4 39 25.4
2010-07-06 09:45:27 51°32.925 2°56.229 268.2 0.6 47 26.3
2010-07-06 09:46:27 51°32.931 2°56.242 269.4 0.7 55 26.4
2010-07-06 09:47:27 51°32.937 2°56.256 270.1 0.7 61 26.3
2010-07-06 09:48:27 51°32.941 2°56.274 264.7 0.8 71 25.2
2010-07-06 09:49:27 51°32.945 2°56.295 255.5 0.9 75 22.8
2010-07-06 09:50:27 51°32.95 2°56.317 247.8 0.9 79 24.4
2010-07-06 09:51:27 51°32.954 2°56.342 238.9 1 76 25
2010-07-06 09:52:27 51°32.959 2°56.369 228.6 1 74 25.6
2010-07-06 09:53:27 51°32.963 2°56.395 223.8 1 73 25.9
2010-07-06 09:54:27 51°32.969 2°56.42 220.4 1 72 26.4
2010-07-06 09:55:27 51°32.973 2°56.446 218.6 1 73 26
2010-07-06 09:56:27 51°32.978 2°56.471 218.8 0.9 67 25.8
2010-07-06 09:57:27 51°32.983 2°56.496 219.4 1 71 25
2010-07-06 09:58:27 51°32.989 2°56.521 220.9 1 72 23.7
2010-07-06 09:59:27 51°32.995 2°56.546 220 1 71 24.4
2010-07-06 10:00:27 51°33.001 2°56.57 220.2 1 69 24.2
2010-07-06 10:01:27 51°33.007 2°56.594 220.7 1 70 24.2
2010-07-06 10:02:27 51°33.012 2°56.618 221.5 1 70 23.9
2010-07-06 10:03:27 51°33.018 2°56.642 223.2 0.9 68 24.8
2010-07-06 10:04:27 51°33.024 2°56.667 225.5 1 71 25.1
2010-07-06 10:05:27 51°33.03 2°56.69 225.4 0.9 67 24.8
2010-07-06 10:06:27 51°33.035 2°56.714 224.9 1 67 25
2010-07-06 10:07:27 51°33.041 2°56.737 226 0.9 68 24.1
2010-07-06 10:08:27 51°33.047 2°56.761 226.2 1 70 24.9
2010-07-06 10:09:27 51°33.053 2°56.785 226.4 1 71 25.4
2010-07-06 10:10:27 51°33.059 2°56.809 226.5 1 71 25.6
2010-07-06 10:11:27 51°33.064 2°56.834 225.1 1 73 25.2
2010-07-06 10:12:27 51°33.07 2°56.859 223.2 1 72 25.3
2010-07-06 10:13:27 51°33.075 2°56.884 221.2 1 75 25.4
2010-07-06 10:14:27 51°33.079 2°56.91 221.7 1 75 25
2010-07-06 10:15:27 51°33.084 2°56.935 220 0.9 66 24.4
2010-07-06 10:16:27 51°33.089 2°56.96 219.4 1 72 22.5
2010-07-06 10:17:27 51°33.093 2°56.984 221.4 1 74 22.6
2010-07-06 10:18:27 51°33.099 2°57.008 221.6 1 73 23.1
2010-07-06 10:19:27 51°33.102 2°57.032 222.9 0.9 68 21.2
2010-07-06 10:20:27 51°33.109 2°57.057 223.4 0.9 69 23.1
2010-07-06 10:21:27 51°33.113 2°57.081 223.5 0.9 73 22.8
2010-07-06 10:22:27 51°33.117 2°57.104 223.4 0.9 70 20.3
2010-07-06 10:23:27 51°33.12 2°57.128 222.9 0.9 75 20.9
2010-07-06 10:24:27 51°33.125 2°57.151 223.6 0.6 103 21.6
2010-07-06 10:25:27 51°33.1 2°57.069 252.7 6.7 259 22.8
2010-07-06 10:26:27 51°33.108 2°56.848 270.2 9 269 22.4
2010-07-06 10:27:27 51°33.123 2°56.602 274 9.4 276 25.9
2010-07-06 10:28:27 51°33.138 2°56.352 274.6 9.4 278 26.2
2010-07-06 10:29:27 51°33.145 2°56.117 271.1 8.2 273 25.8
2010-07-06 10:30:27 51°33.121 2°55.967 242.9 3.9 242 24.8
2010-07-06 10:31:27 51°33.104 2°55.919 251 0.5 272 26.1
2010-07-06 10:32:27 51°33.107 2°55.926 272 0.5 63 26.4
2010-07-06 10:33:27 51°33.109 2°55.939 274.3 0.5 74 25.9
2010-07-06 10:34:27 51°33.111 2°55.953 265.1 0.6 77 25
2010-07-06 10:35:27 51°33.112 2°55.969 252.7 0.6 89 23.2
2010-07-06 10:36:27 51°33.113 2°55.986 242.2 0.6 86 24.6
2010-07-06 10:37:27 51°33.114 2°56.004 236.2 0.7 85 25.8
2010-07-06 10:38:27 51°33.115 2°56.023 232.7 0.7 83 25.9
2010-07-06 10:39:27 51°33.102 2°55.989 250.7 3.6 251 25
2010-07-06 10:40:27 51°33.081 2°55.869 251.8 4.3 252 25.6
2010-07-06 10:41:27 51°33.072 2°55.812 254.8 1.6 260 25.6
2010-07-06 10:42:27 51°33.07 2°55.778 260.6 1.1 273 25.9
2010-07-06 10:43:27 51°33.07 2°55.754 262.9 0.7 270 25.8
2010-07-06 10:44:27 51°33.07 2°55.739 263.6 0.4 274 25.4
2010-07-06 10:45:27 51°33.072 2°55.731 264.4 0.2 246 25.2
2010-07-06 10:46:27 51°33.07 2°55.728 264.2 0.1 314 25
2010-07-06 10:47:27 51°33.07 2°55.73 266.6 0.2 3 25
2010-07-06 10:48:27 51°33.071 2°55.732 267.6 0.1 50 25.2
2010-07-06 10:49:27 51°33.071 2°55.735 268.1 0.1 63 25.3
2010-07-06 10:50:27 51°33.072 2°55.739 268.8 0.2 61 25.6
2010-07-06 10:51:27 51°33.073 2°55.744 268.3 0.2 89 25.8
2010-07-06 10:52:27 51°33.073 2°55.752 265.7 0.3 99 26
2010-07-06 10:53:27 51°33.072 2°55.758 262.1 0.3 112 25.4
2010-07-06 10:54:27 51°33.072 2°55.766 257.9 0.3 83 25.9
2010-07-06 10:55:27 51°33.07 2°55.776 253.1 0.4 103 25.6
2010-07-06 10:56:27 51°33.069 2°55.787 249.3 0.4 103 26.1
2010-07-06 10:57:27 51°33.067 2°55.797 247.4 0.4 112 25.5
2010-07-06 10:58:27 51°33.065 2°55.806 245.6 0.4 112 25.6
2010-07-06 10:59:27 51°33.063 2°55.815 244.7 0.4 118 25.7
2010-07-06 11:00:27 51°33.06 2°55.822 245.4 0.3 119 25.5
2010-07-06 11:01:27 51°33.057 2°55.829 247.1 0.3 120 25.4
2010-07-06 11:02:27 51°33.054 2°55.835 249 0.3 137 25.3
2010-07-06 11:03:27 51°33.051 2°55.84 249.7 0.3 139 25.5
2010-07-06 11:04:27 51°33.047 2°55.845 248.7 0.3 139 25.2
2010-07-06 11:05:27 51°33.043 2°55.85 246.9 0.4 144 25.2
2010-07-06 11:06:27 51°33.041 2°55.854 247.5 0.3 144 24.8
2010-07-06 11:07:27 51°33.036 2°55.859 248.3 0.2 142 24.7
2010-07-06 11:08:27 51°33.032 2°55.863 249.6 0.3 147 24.9
2010-07-06 11:09:27 51°33.028 2°55.867 250.9 0.3 146 24.9
2010-07-06 11:10:27 51°33.024 2°55.872 250.3 0.4 146 24.7
2010-07-06 11:11:27 51°33.019 2°55.877 247.5 0.3 146 25
2010-07-06 11:12:27 51°33.015 2°55.881 244.4 0.4 149 25.2
2010-07-06 11:13:27 51°33.01 2°55.886 242.5 0.3 143 25
2010-07-06 11:14:27 51°33.005 2°55.892 240.1 0.4 143 25.2
2010-07-06 11:15:27 51°32.989 2°55.883 216.6 2.5 203 25.2
2010-07-06 11:16:27 51°32.93 2°55.901 156.3 4.7 152 24.4
2010-07-06 11:17:27 51°32.849 2°55.926 184.8 5.1 187 24.5
2010-07-06 11:18:27 51°32.776 2°55.859 226.9 5.1 230 22.9
2010-07-06 11:19:27 51°32.748 2°55.77 253.8 2.7 252 23.4
2010-07-06 11:20:27 51°32.745 2°55.736 279.7 0.8 277 20.5
2010-07-06 11:21:27 51°32.746 2°55.716 290 0.7 285 22.7
2010-07-06 11:22:27 51°32.747 2°55.701 294 0.5 283 23
2010-07-06 11:23:27 51°32.748 2°55.691 296.8 0.4 266 23.5
2010-07-06 11:24:27 51°32.748 2°55.683 298.4 0.2 256 23.3
2010-07-06 11:25:27 51°32.746 2°55.679 298.2 0.2 234 23.7
2010-07-06 11:26:27 51°32.743 2°55.676 294.8 0.2 199 23.6
2010-07-06 11:27:27 51°32.739 2°55.675 287.5 0.3 187 23.3
2010-07-06 11:28:27 51°32.733 2°55.676 275.2 0.3 167 23.4
2010-07-06 11:29:27 51°32.728 2°55.679 261.1 0.3 161 23.1
2010-07-06 11:30:27 51°32.723 2°55.682 247.2 0.3 150 22.8
2010-07-06 11:31:27 51°32.718 2°55.687 235.4 0.3 148 23.1
2010-07-06 11:32:27 51°32.715 2°55.692 226.1 0.3 137 23.3
2010-07-06 11:33:27 51°32.711 2°55.697 220.2 0.3 135 23.6
2010-07-06 11:34:27 51°32.708 2°55.703 217.3 0.3 131 23.8
2010-07-06 11:35:27 51°32.704 2°55.71 213.3 0.3 130 24
2010-07-06 11:36:27 51°32.7 2°55.716 210.2 0.3 136 24
2010-07-06 11:37:27 51°32.698 2°55.722 208.5 0.3 130 24.4
2010-07-06 11:38:27 51°32.695 2°55.728 207.4 0.4 127 24.4
2010-07-06 11:39:27 51°32.691 2°55.734 206.9 0.2 134 24.5
2010-07-06 11:40:27 51°32.688 2°55.74 205.9 0.3 131 24.3
2010-07-06 11:41:27 51°32.684 2°55.746 204.6 0.3 128 24.4
2010-07-06 11:42:27 51°32.68 2°55.753 203 0.3 137 24.6
2010-07-06 11:43:27 51°32.676 2°55.759 202.6 0.3 135 24.3
2010-07-06 11:44:27 51°32.673 2°55.765 202.7 0.4 128 24.1
2010-07-06 11:45:27 51°32.668 2°55.77 203.3 0.4 157 24.4
2010-07-06 11:46:27 51°32.662 2°55.774 204.8 0.4 163 24
2010-07-06 11:47:27 51°32.656 2°55.778 207.7 0.4 158 24.1
2010-07-06 11:48:27 51°32.65 2°55.781 210.1 0.4 162 24
2010-07-06 11:49:27 51°32.643 2°55.785 213.2 0.4 171 23.7
2010-07-06 11:50:27 51°32.637 2°55.789 214.2 0.5 159 23.4
2010-07-06 11:51:27 51°32.63 2°55.792 214.2 0.5 160 23.4
2010-07-06 11:52:27 51°32.623 2°55.795 216.4 0.5 170 23.7
2010-07-06 11:53:27 51°32.615 2°55.797 219.8 0.4 182 23.6
2010-07-06 11:54:27 51°32.608 2°55.799 223.1 0.4 181 24
2010-07-06 11:55:27 51°32.592 2°55.781 237.4 2.3 233 24
2010-07-06 11:56:27 51°32.58 2°55.711 272.2 3 268 23.5
2010-07-06 11:57:27 51°32.594 2°55.631 302.5 3.3 297 22.5
2010-07-06 11:58:27 51°32.625 2°55.549 310.7 3.8 307 19.6
2010-07-06 11:59:27 51°32.67 2°55.483 331 3.2 326 19.8
2010-07-06 12:00:27 51°32.709 2°55.453 346.6 2.5 339 21.8
2010-07-06 12:01:27 51°32.746 2°55.439 359.1 2.3 353 25
2010-07-06 12:02:27 51°32.784 2°55.432 358.8 2 356 26.8
2010-07-06 12:03:27 51°32.81 2°55.429 0.2 1.3 355 26.7
2010-07-06 12:04:27 51°32.829 2°55.426 357.6 0.9 355 26.1
2010-07-06 12:05:27 51°32.852 2°55.432 24.7 1.7 29 25.2
2010-07-06 12:06:27 51°32.867 2°55.47 68.3 1.4 76 23.5
2010-07-06 12:07:27 51°32.866 2°55.496 85.3 0.9 99 24
2010-07-06 12:08:27 51°32.86 2°55.518 91.4 0.9 116 23.5
2010-07-06 12:09:27 51°32.851 2°55.549 104.6 1.5 118 22.3
2010-07-06 12:10:27 51°32.836 2°55.589 114.8 1.7 128 20.5
2010-07-06 12:11:27 51°32.819 2°55.62 118.4 1.5 135 20.1
2010-07-06 12:12:27 51°32.804 2°55.639 117.6 1.1 147 22
2010-07-06 12:13:27 51°32.79 2°55.655 118.4 1 145 23
2010-07-06 12:14:27 51°32.776 2°55.671 116.6 1 141 23.1
2010-07-06 12:15:27 51°32.764 2°55.687 114 0.8 131 22.8
2010-07-06 12:16:27 51°32.753 2°55.702 110.3 1 144 22.6
2010-07-06 12:17:27 51°32.741 2°55.718 107.5 0.9 141 22.9
2010-07-06 12:18:27 51°32.731 2°55.732 104.3 0.9 145 23.3
2010-07-06 12:19:27 51°32.718 2°55.745 102 0.8 143 22.9
2010-07-06 12:20:27 51°32.708 2°55.757 100.2 0.7 141 23.2
2010-07-06 12:21:27 51°32.694 2°55.786 111.1 2.5 127 23.5
2010-07-06 12:22:27 51°32.648 2°55.837 152.2 4 160 24.1
2010-07-06 12:23:26 51°32.51 2°55.855 178.6 12.5 180 22
2010-07-06 12:24:25 51°32.29 2°55.839 181.9 13.7 183 21.8
2010-07-06 12:25:24 51°32.066 2°55.82 183.7 13.7 186 18.3
2010-07-06 12:26:23 51°31.842 2°55.773 186.1 13.9 188 19.7
2010-07-06 12:27:23 51°31.614 2°55.726 186.7 13.7 188 18.5
2010-07-06 12:28:23 51°31.388 2°55.684 185.1 13.5 187 15.7
2010-07-06 12:29:23 51°31.162 2°55.639 185.2 13.7 188 18.1
2010-07-06 12:30:23 51°30.937 2°55.592 185.7 13.7 188 29.9
2010-07-06 12:31:23 51°30.711 2°55.545 185.7 13.8 188 37.4
2010-07-06 12:32:23 51°30.483 2°55.498 185.5 13.8 188 35.3
2010-07-06 12:33:23 51°30.255 2°55.452 185.5 13.9 186 32.3
2010-07-06 12:34:23 51°30.027 2°55.405 185.7 13.8 186 29.4
2010-07-06 12:35:23 51°29.798 2°55.359 185.8 14 189 28.8
2010-07-06 12:36:23 51°29.57 2°55.312 186 13.6 188 27.4
2010-07-06 12:37:23 51°29.343 2°55.267 185.4 13.9 187 25.9
2010-07-06 12:38:23 51°29.115 2°55.218 184.8 13.7 188 24.6
2010-07-06 12:39:23 51°28.89 2°55.169 185.3 13.7 188 22.9
2010-07-06 12:40:23 51°28.663 2°55.121 184.7 13.8 188 22.1
2010-07-06 12:41:23 51°28.436 2°55.069 185.6 13.9 188 19.6
2010-07-06 12:42:23 51°28.209 2°55.015 185.9 13.8 188 22.3
2010-07-06 12:43:23 51°27.982 2°54.961 187 13.9 189 23.1
2010-07-06 12:44:23 51°27.756 2°54.891 189.5 13.9 192 26.9
2010-07-06 12:45:23 51°27.529 2°54.818 189 13.9 192 28.1
2010-07-06 12:46:23 51°27.3 2°54.746 188.7 14 192 28.6
2010-07-06 12:47:23 51°27.069 2°54.673 188.8 14.1 191 28.4
2010-07-06 12:48:23 51°26.838 2°54.604 188.3 14.2 190 25.1
2010-07-06 12:49:23 51°26.606 2°54.528 188.5 14.2 192 21
2010-07-06 12:50:23 51°26.375 2°54.451 187.5 14 192 23.2
2010-07-06 12:51:23 51°26.147 2°54.374 188.5 14 193 21.8
2010-07-06 12:52:23 51°25.918 2°54.297 187.7 14 192 22.2
2010-07-06 12:53:23 51°25.69 2°54.222 188 13.9 191 20.9
2010-07-06 12:54:23 51°25.462 2°54.145 188.4 14.1 193 19.2
2010-07-06 12:55:23 51°25.233 2°54.071 188.5 14 191 20.9
2010-07-06 12:56:23 51°25.003 2°53.994 188.4 14.3 192 20.3
2010-07-06 12:57:23 51°24.771 2°53.916 188.6 14.2 192 17.9
2010-07-06 12:58:23 51°24.539 2°53.841 187.8 14.2 192 15.8
2010-07-06 12:59:23 51°24.309 2°53.763 187.8 14.1 192 16.8
2010-07-06 13:00:23 51°24.08 2°53.684 188.6 14.1 192 20.5
2010-07-06 13:01:23 51°23.852 2°53.604 187.7 14.1 191 20.2
2010-07-06 13:02:23 51°23.622 2°53.524 188.2 14.2 193 20.2
2010-07-06 13:03:23 51°23.393 2°53.442 187.8 14.2 193 20.1
2010-07-06 13:04:23 51°23.163 2°53.358 188.1 14.2 193 19.8
2010-07-06 13:05:23 51°22.933 2°53.276 187.9 14.1 192 21.9
2010-07-06 13:06:23 51°22.705 2°53.19 188.6 14.1 193 21.5
2010-07-06 13:07:23 51°22.476 2°53.105 187.8 14.2 192 22.1
2010-07-06 13:08:23 51°22.245 2°53.03 184.3 14 185 22.9
2010-07-06 13:09:23 51°22.013 2°53.025 174.7 13.8 179 21.2
2010-07-06 13:10:23 51°21.785 2°53.019 177.2 13.8 181 18.6
2010-07-06 13:11:23 51°21.556 2°53.005 178.1 13.7 183 16.7
2010-07-06 13:12:23 51°21.327 2°52.98 180.2 13.9 186 15.5
2010-07-06 13:13:23 51°21.097 2°52.928 183.6 14.1 190 14.6
2010-07-06 13:14:23 51°20.867 2°52.872 183.5 14 189 14.9
2010-07-06 13:15:23 51°20.634 2°52.814 183.7 14.1 188 15.4
2010-07-06 13:16:23 51°20.4 2°52.775 179.3 14.2 186 15.6
2010-07-06 13:17:23 51°20.166 2°52.738 180.1 14.1 185 15.5
2010-07-06 13:18:23 51°19.933 2°52.703 180.1 14.1 186 15.3
2010-07-06 13:19:23 51°19.7 2°52.665 179.7 14.1 185 14.9
2010-07-06 13:20:23 51°19.467 2°52.649 176.2 13.9 182 14.2
2010-07-06 13:21:23 51°19.234 2°52.638 177.6 13.9 182 13.1
2010-07-06 13:22:23 51°19.001 2°52.624 177.2 13.9 181 12.1
2010-07-06 13:23:23 51°18.769 2°52.614 177 14 181 11.3
2010-07-06 13:24:23 51°18.536 2°52.601 177.6 14.1 183 10.6
2010-07-06 13:25:23 51°18.303 2°52.587 177.2 14 182 10.2
2010-07-06 13:26:23 51°18.07 2°52.586 175.6 14 180 9.9
2010-07-06 13:27:23 51°17.837 2°52.601 172.3 14 176 9.5
2010-07-06 13:28:23 51°17.604 2°52.629 170 14.1 174 9.5
2010-07-06 13:29:23 51°17.375 2°52.692 163.9 13.9 169 9.3
2010-07-06 13:30:23 51°17.151 2°52.776 159.3 13.9 163 9.1
2010-07-06 13:31:23 51°16.932 2°52.888 158.3 13.7 163 8.3
2010-07-06 13:32:23 51°16.714 2°53 158.2 14.2 162 10.2
2010-07-06 13:33:23 51°16.491 2°53.111 158.2 14 164 11
2010-07-06 13:34:23 51°16.274 2°53.226 151.9 13.6 158 11.1
2010-07-06 13:35:23 51°16.063 2°53.359 152 13.7 158 10.8
2010-07-06 13:36:23 51°15.853 2°53.49 153.2 13.6 158 10.8
2010-07-06 13:37:23 51°15.644 2°53.621 152.8 13.4 157 10.4
2010-07-06 13:38:23 51°15.445 2°53.779 143 13.2 148 9.4
2010-07-06 13:39:23 51°15.27 2°53.985 136.8 13 141 8.4
2010-07-06 13:40:23 51°15.1 2°54.2 135.2 13 142 8
2010-07-06 13:41:23 51°14.938 2°54.427 133.2 13.3 139 10.4
2010-07-06 13:42:23 51°14.763 2°54.652 138.2 13.2 144 10.6
2010-07-06 13:43:23 51°14.61 2°54.853 134.4 11 140 10.8
2010-07-06 13:44:23 51°14.469 2°55.036 139.6 11 140 9.7
2010-07-06 13:45:23 51°14.322 2°55.212 143.6 11 144 9.5
2010-07-06 13:46:23 51°14.196 2°55.349 148.9 8.1 150 10.6
2010-07-06 13:47:23 51°14.08 2°55.44 155.2 7.7 155 9.5
2010-07-06 13:48:23 51°13.969 2°55.52 155.5 6.7 155 10.4
2010-07-06 13:49:23 51°13.872 2°55.59 155.6 6 155 9.7
2010-07-06 13:50:23 51°13.792 2°55.656 149 5.2 148 10.8
2010-07-06 13:51:23 51°13.73 2°55.743 130 4.8 130 11.9
2010-07-06 13:52:23 51°13.687 2°55.847 117.1 4.4 117 9
2010-07-06 13:53:23 51°13.666 2°55.937 104.9 2.8 107 6.5
2010-07-06 13:54:23 51°13.662 2°55.959 120.2 0.3 76 5.6